South Amherst, Ohio
Current Conditions -  °F | °C
As of 2:53 PM on Thursday 30 Oct 2014 (Local Time) from KLPR Reporting Station
Broken Clouds Broken Clouds  
Wind Chill: 44°   Ceiling: 3600
Heat Index: 48°   Visibility: 10mi
Dew Point: 36°   Wind: 9mph
Humidity: 63%   Direction: 330°NNW
Pressure: 30.09"   Gusts: NA
Location:  41.3705°N, 82.2583°W
Report Text: KLPR 301853Z AUTO 33008KT 10SM FEW030 BKN036 09/02 A3009 RMK AO2 SLP195 T00890022 TSNO
Loading
Personal Weather Stations






























Interactive Weather Map
Tropical Storm Tracking
New forecast layout! Learn more

10-Day Weather Forecast

Advertisements
Track Severe Weather on mobile